createdAt,value
2018-06-21T00:00:04.434Z,21.40
2018-06-21T00:02:31.978Z,21.47
2018-06-21T00:04:58.914Z,21.46
2018-06-21T00:07:27.947Z,21.47
2018-06-21T00:10:02.862Z,21.43
2018-06-21T00:12:31.477Z,21.24
2018-06-21T00:14:58.847Z,20.98
2018-06-21T00:17:25.789Z,21.04
2018-06-21T00:19:53.642Z,21.04
2018-06-21T00:22:22.411Z,20.97
2018-06-21T00:24:53.942Z,20.91
2018-06-21T00:27:20.858Z,20.85
2018-06-21T00:29:51.430Z,20.80
2018-06-21T00:32:18.901Z,20.77
2018-06-21T00:34:45.862Z,20.73
2018-06-21T00:37:12.703Z,20.71
2018-06-21T00:39:44.486Z,20.54
2018-06-21T00:42:14.410Z,20.40
2018-06-21T00:44:44.049Z,20.37
2018-06-21T00:47:10.966Z,20.38
2018-06-21T00:49:49.878Z,20.38
2018-06-21T00:52:21.724Z,20.38
2018-06-21T00:54:51.650Z,20.37
2018-06-21T00:57:20.641Z,20.33
2018-06-21T00:59:50.517Z,20.29
2018-06-21T01:02:18.456Z,20.30
2018-06-21T01:04:45.939Z,20.36
2018-06-21T01:07:19.853Z,20.50
2018-06-21T01:09:46.759Z,20.40
2018-06-21T01:12:24.254Z,20.18
2018-06-21T01:14:55.275Z,20.08
2018-06-21T01:17:26.741Z,20.00
2018-06-21T01:19:59.732Z,20.11
2018-06-21T01:22:30.470Z,19.89
2018-06-21T01:25:02.238Z,19.80
2018-06-21T01:27:30.014Z,19.63
2018-06-21T01:29:58.471Z,19.82
2018-06-21T01:32:29.741Z,19.93
2018-06-21T01:34:59.630Z,19.99
2018-06-21T01:37:27.494Z,19.79
2018-06-21T01:39:55.958Z,19.55
2018-06-21T01:42:23.496Z,19.32
2018-06-21T01:44:58.394Z,19.13
2018-06-21T01:47:28.004Z,19.20
2018-06-21T01:49:54.942Z,19.37
2018-06-21T01:52:23.468Z,19.23
2018-06-21T01:54:50.394Z,19.21
2018-06-21T01:57:18.006Z,19.41
2018-06-21T01:59:46.462Z,19.47
2018-06-21T02:02:17.615Z,19.49
2018-06-21T02:04:47.453Z,19.28
2018-06-21T02:07:16.076Z,19.16
2018-06-21T02:09:43.011Z,19.43
2018-06-21T02:12:09.954Z,19.48
2018-06-21T02:14:43.878Z,19.41
2018-06-21T02:17:19.434Z,19.42
2018-06-21T02:19:47.909Z,19.36
2018-06-21T02:22:20.930Z,19.36
2018-06-21T02:24:47.849Z,19.49
2018-06-21T02:27:15.762Z,19.46
2018-06-21T02:29:43.586Z,19.44
2018-06-21T02:34:47.683Z,19.75
2018-06-21T02:37:19.894Z,20.26
2018-06-21T02:39:47.555Z,19.99
2018-06-21T02:42:15.915Z,19.91
2018-06-21T02:44:45.563Z,19.98
2018-06-21T02:47:12.993Z,20.03
2018-06-21T02:49:43.998Z,20.07
2018-06-21T02:52:13.935Z,20.17
2018-06-21T02:54:43.853Z,20.17
2018-06-21T02:57:11.487Z,19.94
2018-06-21T02:59:38.477Z,20.00
2018-06-21T03:02:05.444Z,20.22
2018-06-21T03:04:33.997Z,20.24
2018-06-21T03:07:00.947Z,20.08
2018-06-21T03:09:30.918Z,20.08
2018-06-21T03:12:07.299Z,19.93
2018-06-21T03:14:38.018Z,19.83
2018-06-21T03:17:07.975Z,19.62
2018-06-21T03:22:23.308Z,19.64
2018-06-21T03:24:55.071Z,19.65
2018-06-21T03:27:27.293Z,19.48
2018-06-21T03:29:58.298Z,19.48
2018-06-21T03:32:26.055Z,19.52
2018-06-21T03:34:55.574Z,19.55
2018-06-21T03:37:28.110Z,19.80
2018-06-21T03:39:55.031Z,19.91
2018-06-21T03:42:22.052Z,19.85
2018-06-21T03:44:52.062Z,19.86
2018-06-21T03:47:22.026Z,19.79
2018-06-21T03:49:57.754Z,19.69
2018-06-21T03:52:26.547Z,19.62
2018-06-21T03:55:00.754Z,19.66
2018-06-21T03:57:32.723Z,20.02
2018-06-21T04:00:01.475Z,20.30
2018-06-21T04:02:32.077Z,20.26
2018-06-21T04:04:59.018Z,20.17
2018-06-21T04:07:25.969Z,20.08
2018-06-21T04:09:58.753Z,20.15
2018-06-21T04:12:31.786Z,20.27
2018-06-21T04:15:06.007Z,20.43
2018-06-21T04:17:38.993Z,20.63
2018-06-21T04:20:05.957Z,20.86
2018-06-21T04:22:34.275Z,21.11
2018-06-21T04:25:01.203Z,21.02
2018-06-21T04:27:31.338Z,20.95
2018-06-21T04:30:01.267Z,21.23
2018-06-21T04:32:28.201Z,21.48
2018-06-21T04:34:56.162Z,21.07
2018-06-21T04:37:24.091Z,21.03
2018-06-21T04:39:58.911Z,21.83
2018-06-21T04:42:28.835Z,22.90
2018-06-21T04:44:56.829Z,22.74
2018-06-21T04:47:26.720Z,23.87
2018-06-21T04:49:53.754Z,24.91
2018-06-21T04:52:20.666Z,25.39
2018-06-21T04:54:47.650Z,26.19
2018-06-21T04:57:14.590Z,25.98
2018-06-21T04:59:41.549Z,25.35
2018-06-21T05:02:11.482Z,23.95
2018-06-21T05:04:44.466Z,23.47
2018-06-21T05:07:15.442Z,23.05
2018-06-21T05:09:42.290Z,23.42
2018-06-21T05:12:10.149Z,23.84
2018-06-21T05:14:37.152Z,24.28
2018-06-21T05:17:09.379Z,24.38
2018-06-21T05:19:37.234Z,24.64
2018-06-21T05:22:09.147Z,24.20
2018-06-21T05:24:36.624Z,24.54
2018-06-21T05:27:19.697Z,24.44
2018-06-21T05:29:56.446Z,25.06
2018-06-21T05:32:25.294Z,25.85
2018-06-21T05:34:55.172Z,25.89
2018-06-21T05:37:23.797Z,26.66
2018-06-21T05:39:51.762Z,26.61
2018-06-21T05:42:19.624Z,26.75
2018-06-21T05:44:49.142Z,26.08
2018-06-21T05:47:21.640Z,24.91
2018-06-21T05:49:50.117Z,24.83
2018-06-21T05:52:17.082Z,24.41
2018-06-21T05:54:44.027Z,23.63
2018-06-21T05:57:15.630Z,23.75
2018-06-21T05:59:47.158Z,24.19
2018-06-21T06:02:18.118Z,24.95
2018-06-21T06:04:45.703Z,24.71
2018-06-21T06:07:13.666Z,24.08
2018-06-21T06:09:51.547Z,24.15
2018-06-21T06:12:18.417Z,23.63
2018-06-21T06:15:05.998Z,23.72
2018-06-21T06:17:33.630Z,23.70
2018-06-21T06:20:07.170Z,23.73
2018-06-21T06:22:35.162Z,24.11
2018-06-21T06:25:02.638Z,24.02
2018-06-21T06:27:29.498Z,23.97
2018-06-21T06:29:56.419Z,24.36
2018-06-21T06:32:23.358Z,24.40
2018-06-21T06:34:51.386Z,24.19
2018-06-21T06:37:24.434Z,24.08
2018-06-21T06:39:54.378Z,23.91
2018-06-21T06:42:24.323Z,23.82
2018-06-21T06:44:51.186Z,24.22
2018-06-21T06:47:20.218Z,24.18
2018-06-21T06:49:47.664Z,24.13
2018-06-21T06:52:17.591Z,24.50
2018-06-21T06:54:44.612Z,24.87
2018-06-21T06:57:11.563Z,24.74
2018-06-21T06:59:39.190Z,25.05
2018-06-21T07:02:07.660Z,25.15
2018-06-21T07:04:34.605Z,25.28
2018-06-21T07:07:06.429Z,24.92
2018-06-21T07:09:36.325Z,25.01
2018-06-21T07:12:06.463Z,25.21
2018-06-21T07:14:39.662Z,25.15
2018-06-21T07:17:10.606Z,25.39
2018-06-21T07:19:37.537Z,25.69
2018-06-21T07:22:08.193Z,25.38
2018-06-21T07:24:35.699Z,25.58
2018-06-21T07:27:02.635Z,25.78
2018-06-21T07:29:29.618Z,25.43
2018-06-21T07:31:56.534Z,25.84
2018-06-21T07:34:24.246Z,25.67
2018-06-21T07:36:51.703Z,26.30
2018-06-21T07:39:18.642Z,26.35
2018-06-21T07:41:45.607Z,26.35
2018-06-21T07:44:12.567Z,26.43
2018-06-21T07:46:45.682Z,26.24
2018-06-21T07:49:13.649Z,26.40
2018-06-21T07:51:43.605Z,26.74
2018-06-21T07:54:13.490Z,26.71
2018-06-21T07:56:43.631Z,26.47
2018-06-21T07:59:12.326Z,26.49
2018-06-21T08:01:39.198Z,26.83
2018-06-21T08:04:06.388Z,26.45
2018-06-21T08:06:39.470Z,26.57
2018-06-21T08:09:08.546Z,26.66
2018-06-21T08:11:39.532Z,26.19
2018-06-21T08:14:10.566Z,26.15
2018-06-21T08:16:38.402Z,26.14
2018-06-21T08:19:07.255Z,25.88
2018-06-21T08:21:34.727Z,25.73
2018-06-21T08:24:04.918Z,26.03
2018-06-21T08:26:32.723Z,26.29
2018-06-21T08:28:59.590Z,26.56
2018-06-21T08:31:30.555Z,26.57
2018-06-21T08:34:00.174Z,26.46
2018-06-21T08:36:27.744Z,26.85
2018-06-21T08:38:58.226Z,26.55
2018-06-21T08:41:27.140Z,26.42
2018-06-21T08:43:56.786Z,26.68
2018-06-21T08:46:23.726Z,26.43
2018-06-21T08:48:52.217Z,26.60
2018-06-21T08:51:20.674Z,26.68
2018-06-21T08:53:50.743Z,26.81
2018-06-21T08:56:17.710Z,26.99
2018-06-21T08:58:47.770Z,26.84
2018-06-21T09:01:14.694Z,27.57
2018-06-21T09:03:43.321Z,26.98
2018-06-21T09:06:11.303Z,27.41
2018-06-21T09:08:38.255Z,27.68
2018-06-21T09:11:08.186Z,27.48
2018-06-21T09:13:39.448Z,27.11
2018-06-21T09:16:21.892Z,27.63
2018-06-21T09:18:49.814Z,27.35
2018-06-21T09:21:18.851Z,27.41
2018-06-21T09:23:46.723Z,27.47
2018-06-21T09:26:24.074Z,27.77
2018-06-21T09:28:52.718Z,28.41
2018-06-21T09:31:20.289Z,27.72
2018-06-21T09:33:48.289Z,28.36
2018-06-21T09:36:18.194Z,28.05
2018-06-21T09:38:51.670Z,28.59
2018-06-21T09:41:25.279Z,28.58
2018-06-21T09:44:03.820Z,28.47
2018-06-21T09:46:34.372Z,28.47
2018-06-21T09:49:00.238Z,28.12
2018-06-21T09:51:28.797Z,28.35
2018-06-21T09:54:00.002Z,28.42
2018-06-21T09:56:26.943Z,28.79
2018-06-21T09:58:53.879Z,28.53
2018-06-21T10:01:20.830Z,28.43
2018-06-21T10:03:47.819Z,28.14
2018-06-21T10:06:17.775Z,28.21
2018-06-21T10:08:46.737Z,28.62
2018-06-21T10:11:28.205Z,28.60
2018-06-21T10:13:56.751Z,28.45
2018-06-21T10:16:23.690Z,28.67
2018-06-21T10:18:54.030Z,28.36
2018-06-21T10:21:20.898Z,27.64
2018-06-21T10:23:49.794Z,28.04
2018-06-21T10:26:22.843Z,28.13
2018-06-21T10:28:57.650Z,27.94
2018-06-21T10:31:24.610Z,27.76
2018-06-21T10:33:51.522Z,28.06
2018-06-21T10:36:18.526Z,28.29
2018-06-21T10:38:49.246Z,28.42
2018-06-21T10:41:19.202Z,28.46
2018-06-21T10:43:46.129Z,28.55
2018-06-21T10:46:13.887Z,28.09
2018-06-21T10:48:41.777Z,27.92
2018-06-21T10:51:10.270Z,28.10
2018-06-21T10:53:37.228Z,28.02
2018-06-21T10:56:07.180Z,28.16
2018-06-21T10:58:34.822Z,28.63
2018-06-21T11:01:05.387Z,28.28
2018-06-21T11:03:32.323Z,29.18
2018-06-21T11:05:59.306Z,28.91
2018-06-21T11:08:27.801Z,28.95
2018-06-21T11:10:54.741Z,28.80
2018-06-21T11:13:30.222Z,28.62
2018-06-21T11:16:00.151Z,28.51
2018-06-21T11:18:37.510Z,28.79
2018-06-21T11:21:08.284Z,29.01
2018-06-21T11:23:35.834Z,29.33
2018-06-21T11:26:02.785Z,29.17
2018-06-21T11:28:31.418Z,28.84
2018-06-21T11:31:04.618Z,29.19
2018-06-21T11:33:31.586Z,29.15
2018-06-21T11:35:58.542Z,28.03
2018-06-21T11:38:26.301Z,28.12
2018-06-21T11:40:55.226Z,28.73
2018-06-21T11:43:22.162Z,28.62
2018-06-21T11:45:49.121Z,29.25
2018-06-21T11:48:16.790Z,29.30
2018-06-21T11:50:46.426Z,28.62
2018-06-21T11:53:15.421Z,28.97
2018-06-21T11:55:53.201Z,29.47
2018-06-21T11:58:20.072Z,29.18
2018-06-21T12:00:48.886Z,30.17
2018-06-21T12:03:15.896Z,28.45
2018-06-21T12:05:58.091Z,28.09
2018-06-21T12:08:28.006Z,27.95
2018-06-21T12:10:55.019Z,28.10
2018-06-21T12:13:23.499Z,28.27
2018-06-21T12:15:51.330Z,28.07
2018-06-21T12:18:18.278Z,28.31
2018-06-21T12:20:45.203Z,27.97
2018-06-21T12:23:15.161Z,27.71
2018-06-21T12:25:48.077Z,27.71
2018-06-21T12:28:16.006Z,26.84
2018-06-21T12:30:47.974Z,27.15
2018-06-21T12:33:19.498Z,27.84
2018-06-21T12:35:49.536Z,28.26
2018-06-21T12:38:20.403Z,28.83
2018-06-21T12:40:47.335Z,28.77
2018-06-21T12:43:14.178Z,27.82
2018-06-21T12:45:43.798Z,27.09
2018-06-21T12:48:12.402Z,26.56
2018-06-21T12:50:39.362Z,26.23
2018-06-21T12:53:07.367Z,26.34
2018-06-21T12:55:36.361Z,26.40
2018-06-21T12:58:04.429Z,26.22
2018-06-21T13:00:31.283Z,25.37
2018-06-21T13:02:59.874Z,25.33
2018-06-21T13:05:27.464Z,24.96
2018-06-21T13:07:55.483Z,24.58
2018-06-21T13:10:34.878Z,24.48
2018-06-21T13:13:18.682Z,24.41
2018-06-21T13:15:54.306Z,24.82
2018-06-21T13:18:34.782Z,24.55
2018-06-21T13:21:08.824Z,24.58
2018-06-21T13:23:36.078Z,24.57
2018-06-21T13:26:05.959Z,24.87
2018-06-21T13:28:33.966Z,25.28
2018-06-21T13:31:01.447Z,25.76
2018-06-21T13:33:28.383Z,25.45
2018-06-21T13:35:55.334Z,25.22
2018-06-21T13:38:23.924Z,26.08
2018-06-21T13:40:50.917Z,26.57
2018-06-21T13:43:19.390Z,26.61
2018-06-21T13:45:47.366Z,26.44
2018-06-21T13:48:14.317Z,26.22
2018-06-21T13:50:41.315Z,25.83
2018-06-21T13:53:09.217Z,25.75
2018-06-21T13:55:38.230Z,25.90
2018-06-21T13:58:11.213Z,25.84
2018-06-21T14:00:41.939Z,26.52
2018-06-21T14:03:08.888Z,25.49
2018-06-21T14:05:39.319Z,25.38
2018-06-21T14:08:07.166Z,25.04
2018-06-21T14:10:34.559Z,25.68
2018-06-21T14:13:03.462Z,26.08
2018-06-21T14:15:34.238Z,26.61
2018-06-21T14:18:02.202Z,27.12
2018-06-21T14:20:29.992Z,27.28
2018-06-21T14:22:56.906Z,27.10
2018-06-21T14:25:24.384Z,25.30
2018-06-21T14:27:52.283Z,24.92
2018-06-21T14:30:19.263Z,25.29
2018-06-21T14:32:46.882Z,25.62
2018-06-21T14:35:13.886Z,25.69
2018-06-21T14:37:44.190Z,26.51
2018-06-21T14:40:13.002Z,27.17
2018-06-21T14:42:39.991Z,27.55
2018-06-21T14:45:07.422Z,28.43
2018-06-21T14:47:34.374Z,28.26
2018-06-21T14:50:01.951Z,28.13
2018-06-21T14:52:29.441Z,28.31
2018-06-21T14:54:57.314Z,27.99
2018-06-21T14:57:24.987Z,29.18
2018-06-21T14:59:51.974Z,28.63
2018-06-21T15:02:19.485Z,29.45
2018-06-21T15:04:48.050Z,30.66
2018-06-21T15:07:16.476Z,31.80
2018-06-21T15:09:44.818Z,30.70
2018-06-21T15:12:11.971Z,30.53
2018-06-21T15:14:48.138Z,29.22
2018-06-21T15:17:17.028Z,27.13
2018-06-21T15:19:46.043Z,28.05
2018-06-21T15:22:17.922Z,26.80
2018-06-21T15:24:46.502Z,25.96
2018-06-21T15:27:13.470Z,25.44
2018-06-21T15:29:43.574Z,26.15
2018-06-21T15:32:16.799Z,24.95
2018-06-21T15:34:46.727Z,24.61
2018-06-21T15:37:13.594Z,24.56
2018-06-21T15:39:40.562Z,24.64
2018-06-21T15:42:07.623Z,24.75
2018-06-21T15:44:34.591Z,24.57
2018-06-21T15:47:05.478Z,24.71
2018-06-21T15:49:35.546Z,24.61
2018-06-21T15:52:02.829Z,24.55
2018-06-21T15:54:30.641Z,25.18
2018-06-21T15:56:59.478Z,25.15
2018-06-21T15:59:27.049Z,24.98
2018-06-21T16:01:54.530Z,25.08
2018-06-21T16:04:23.091Z,26.66
2018-06-21T16:06:55.994Z,26.42
2018-06-21T16:09:24.586Z,28.02
2018-06-21T16:11:52.598Z,27.55
2018-06-21T16:14:25.810Z,27.66
2018-06-21T16:16:55.838Z,25.34
2018-06-21T16:19:22.778Z,24.47
2018-06-21T16:21:49.721Z,26.08
2018-06-21T16:24:32.827Z,26.50
2018-06-21T16:26:59.694Z,26.22
2018-06-21T16:29:26.594Z,25.87
2018-06-21T16:31:54.818Z,26.48
2018-06-21T16:34:21.895Z,27.71
2018-06-21T16:36:49.806Z,27.68
2018-06-21T16:39:16.746Z,26.41
2018-06-21T16:41:43.693Z,26.22
2018-06-21T16:44:11.486Z,24.98
2018-06-21T16:46:40.270Z,24.07
2018-06-21T16:49:07.134Z,23.28
2018-06-21T16:51:36.066Z,23.15
2018-06-21T16:54:15.679Z,23.01
2018-06-21T16:56:48.810Z,22.74
2018-06-21T16:59:16.130Z,22.51
2018-06-21T17:01:44.631Z,22.56
2018-06-21T17:04:15.542Z,22.46
2018-06-21T17:06:42.491Z,22.44
2018-06-21T17:09:20.407Z,22.31
2018-06-21T17:11:48.086Z,22.28
2018-06-21T17:14:15.380Z,22.04
2018-06-21T17:16:43.438Z,21.87
2018-06-21T17:19:13.220Z,22.07
2018-06-21T17:21:40.184Z,21.83
2018-06-21T17:24:11.078Z,21.96
2018-06-21T17:26:38.035Z,22.19
2018-06-21T17:29:11.218Z,22.30
2018-06-21T17:31:41.054Z,22.62
2018-06-21T17:34:10.051Z,22.57
2018-06-21T17:36:43.360Z,23.82
2018-06-21T17:39:11.187Z,25.09
2018-06-21T17:41:46.817Z,24.23
2018-06-21T17:44:19.934Z,24.52
2018-06-21T17:46:48.098Z,24.19
2018-06-21T17:49:15.038Z,24.19
2018-06-21T17:51:44.614Z,23.84
2018-06-21T17:54:13.070Z,23.65
2018-06-21T17:56:39.939Z,23.70
2018-06-21T17:59:09.837Z,23.26
2018-06-21T18:01:38.710Z,22.83
2018-06-21T18:04:05.707Z,22.28
2018-06-21T18:06:34.701Z,22.49
2018-06-21T18:09:06.923Z,22.92
2018-06-21T18:11:34.522Z,22.49
2018-06-21T18:14:05.939Z,22.04
2018-06-21T18:16:32.882Z,22.75
2018-06-21T18:19:02.978Z,22.70
2018-06-21T18:21:29.862Z,22.32
2018-06-21T18:23:56.918Z,22.27
2018-06-21T18:26:29.938Z,22.29
2018-06-21T18:29:03.136Z,22.26
2018-06-21T18:31:30.594Z,22.03
2018-06-21T18:33:58.062Z,22.41
2018-06-21T18:36:25.846Z,21.23
2018-06-21T18:38:52.826Z,20.46
2018-06-21T18:41:20.805Z,19.78
2018-06-21T18:43:47.747Z,19.31
2018-06-21T18:46:22.390Z,18.87
2018-06-21T18:48:51.102Z,18.67
2018-06-21T18:51:18.147Z,18.54
2018-06-21T18:53:45.625Z,18.30
2018-06-21T18:56:12.572Z,18.14
2018-06-21T18:58:42.201Z,18.14
2018-06-21T19:01:10.161Z,18.04
2018-06-21T19:03:38.215Z,17.88
2018-06-21T19:06:24.726Z,17.71
2018-06-21T19:09:00.295Z,17.69
2018-06-21T19:11:34.791Z,17.53
2018-06-21T19:14:03.670Z,17.45
2018-06-21T19:16:30.627Z,17.37
2018-06-21T19:19:00.848Z,17.26
2018-06-21T19:21:29.662Z,17.18
2018-06-21T19:23:57.133Z,17.12
2018-06-21T19:26:24.890Z,17.01
2018-06-21T19:28:51.714Z,16.94
2018-06-21T19:31:20.671Z,16.77
2018-06-21T19:33:48.130Z,16.62
2018-06-21T19:36:15.124Z,16.48
2018-06-21T19:38:43.694Z,16.43
2018-06-21T19:41:10.622Z,16.30
2018-06-21T19:43:37.593Z,16.27
2018-06-21T19:46:08.455Z,16.13
2018-06-21T19:48:35.402Z,16.03
2018-06-21T19:51:04.347Z,16.04
2018-06-21T19:53:31.190Z,16.06
2018-06-21T19:55:58.107Z,15.94
2018-06-21T19:58:25.091Z,15.97
2018-06-21T20:00:52.045Z,15.81
2018-06-21T20:03:19.704Z,15.74
2018-06-21T20:05:46.562Z,15.72
2018-06-21T20:08:14.111Z,15.68
2018-06-21T20:11:05.638Z,15.65
2018-06-21T20:13:48.601Z,15.53
2018-06-21T20:16:17.707Z,15.34
2018-06-21T20:18:45.186Z,15.37
2018-06-21T20:21:13.475Z,15.23
2018-06-21T20:23:43.166Z,15.22
2018-06-21T20:26:11.073Z,15.17
2018-06-21T20:28:40.182Z,15.15
2018-06-21T20:31:09.403Z,15.07
2018-06-21T20:33:37.439Z,14.93
2018-06-21T20:36:06.170Z,14.94
2018-06-21T20:38:34.655Z,14.85
2018-06-21T20:41:02.138Z,14.68
2018-06-21T20:43:29.384Z,14.62
2018-06-21T20:45:56.227Z,14.67
2018-06-21T20:48:24.765Z,14.52
2018-06-21T20:51:02.975Z,14.53
2018-06-21T20:53:30.650Z,14.45
2018-06-21T20:55:58.298Z,14.40
2018-06-21T20:58:25.270Z,14.34
2018-06-21T21:00:53.115Z,14.26
2018-06-21T21:03:21.094Z,14.00
2018-06-21T21:05:48.036Z,13.88
2018-06-21T21:08:15.062Z,13.79
2018-06-21T21:10:42.751Z,13.62
2018-06-21T21:13:19.921Z,13.51
2018-06-21T21:15:47.843Z,13.71
2018-06-21T21:18:15.778Z,13.82
2018-06-21T21:20:43.152Z,13.58
2018-06-21T21:23:13.911Z,13.47
2018-06-21T21:25:40.870Z,13.50
2018-06-21T21:28:08.365Z,13.35
2018-06-21T21:30:35.278Z,13.33
2018-06-21T21:33:02.318Z,13.30
2018-06-21T21:35:30.194Z,13.15
2018-06-21T21:37:57.685Z,13.13
2018-06-21T21:40:25.170Z,12.95
2018-06-21T21:42:53.761Z,12.84
2018-06-21T21:45:23.653Z,12.65
2018-06-21T21:47:52.594Z,12.52
2018-06-21T21:50:19.555Z,12.48
2018-06-21T21:52:46.515Z,12.16
2018-06-21T21:55:13.429Z,12.01
2018-06-21T21:57:41.256Z,11.79
2018-06-21T22:00:48.128Z,11.63
2018-06-21T22:03:15.773Z,11.39
2018-06-21T22:05:43.798Z,11.36
2018-06-21T22:08:12.883Z,11.37
2018-06-21T22:10:41.306Z,11.25
2018-06-21T22:13:12.772Z,11.23
2018-06-21T22:15:39.798Z,11.09
2018-06-21T22:18:07.678Z,10.97
2018-06-21T22:20:37.914Z,10.87
2018-06-21T22:23:05.707Z,10.84
2018-06-21T22:25:35.385Z,11.14
2018-06-21T22:28:07.198Z,10.72
2018-06-21T22:30:34.145Z,10.72
2018-06-21T22:33:01.706Z,10.74
2018-06-21T22:35:34.314Z,10.89
2018-06-21T22:38:02.290Z,10.93
2018-06-21T22:40:29.258Z,10.98
2018-06-21T22:43:00.403Z,10.80
2018-06-21T22:45:31.978Z,10.78
2018-06-21T22:48:02.407Z,10.76
2018-06-21T22:50:30.270Z,10.70
2018-06-21T22:52:57.138Z,10.82
2018-06-21T22:55:32.910Z,10.84
2018-06-21T22:58:00.794Z,10.70
2018-06-21T23:00:34.239Z,10.82
2018-06-21T23:03:01.734Z,10.81
2018-06-21T23:05:33.302Z,10.81
2018-06-21T23:08:00.822Z,10.81
2018-06-21T23:10:27.770Z,10.75
2018-06-21T23:12:54.727Z,10.76
2018-06-21T23:15:21.647Z,10.74
2018-06-21T23:17:48.650Z,10.74
2018-06-21T23:20:16.606Z,10.67
2018-06-21T23:22:50.542Z,10.64
2018-06-21T23:25:23.641Z,10.46
2018-06-21T23:27:53.575Z,10.49
2018-06-21T23:30:20.518Z,10.33
2018-06-21T23:32:49.334Z,10.20
2018-06-21T23:35:16.258Z,10.33
2018-06-21T23:37:43.762Z,10.23
2018-06-21T23:40:14.615Z,10.23
2018-06-21T23:42:44.530Z,10.31
2018-06-21T23:45:17.558Z,10.31
2018-06-21T23:47:47.463Z,10.27
2018-06-21T23:50:17.290Z,10.32
2018-06-21T23:52:44.758Z,10.36
2018-06-21T23:55:11.906Z,10.47
2018-06-21T23:57:39.750Z,10.41
